Terminal Aerodrome Forecast
Issued by NWS

Home | Current Version | Previous Version | Text Only | Print | Product List | Glossary On
Versions: 1 2 3 4 5 6 7 8 9 10 11 12 13 14 15 16 17 18 19
000
FTUS44 KLIX 292320
TAFHUM
TAF
KHUM 292320Z 3000/3024 14014KT P6SM BKN021 BKN028
     FM300200 14009KT P6SM SCT025
     FM300900 14009KT 5SM BR OVC010
     FM301600 16015G20KT P6SM BKN025=

USA.gov is the U.S. government's official web portal to all federal, state and local government web resources and services.